sensor_id;sensor_type;location;lat;lon;timestamp;P1;durP1;ratioP1;P2;durP2;ratioP2
21110;SDS011;10713;51.912;4.494;2023-04-15T00:00:33;12.63;;;4.65;;
21110;SDS011;10713;51.912;4.494;2023-04-15T00:02:59;8.82;;;4.70;;
21110;SDS011;10713;51.912;4.494;2023-04-15T00:05:26;8.93;;;4.82;;
21110;SDS011;10713;51.912;4.494;2023-04-15T00:07:53;9.82;;;5.00;;
21110;SDS011;10713;51.912;4.494;2023-04-15T00:10:19;10.63;;;5.47;;
21110;SDS011;10713;51.912;4.494;2023-04-15T00:12:44;12.35;;;5.00;;
21110;SDS011;10713;51.912;4.494;2023-04-15T00:15:09;16.13;;;5.50;;
21110;SDS011;10713;51.912;4.494;2023-04-15T00:17:36;11.07;;;5.47;;
21110;SDS011;10713;51.912;4.494;2023-04-15T00:20:03;12.90;;;5.57;;
21110;SDS011;10713;51.912;4.494;2023-04-15T00:22:30;16.80;;;5.05;;
21110;SDS011;10713;51.912;4.494;2023-04-15T00:24:56;12.88;;;5.22;;
21110;SDS011;10713;51.912;4.494;2023-04-15T00:27:22;16.40;;;5.75;;
21110;SDS011;10713;51.912;4.494;2023-04-15T00:29:47;11.40;;;5.45;;
21110;SDS011;10713;51.912;4.494;2023-04-15T00:32:12;14.38;;;5.65;;
21110;SDS011;10713;51.912;4.494;2023-04-15T00:34:38;12.45;;;5.40;;
21110;SDS011;10713;51.912;4.494;2023-04-15T00:37:03;7.65;;;4.90;;
21110;SDS011;10713;51.912;4.494;2023-04-15T00:39:29;11.70;;;5.45;;
21110;SDS011;10713;51.912;4.494;2023-04-15T00:41:54;10.02;;;5.45;;
21110;SDS011;10713;51.912;4.494;2023-04-15T00:44:21;11.25;;;5.60;;
21110;SDS011;10713;51.912;4.494;2023-04-15T00:46:47;14.70;;;5.90;;
21110;SDS011;10713;51.912;4.494;2023-04-15T00:49:14;16.88;;;5.60;;
21110;SDS011;10713;51.912;4.494;2023-04-15T00:51:40;14.20;;;5.90;;
21110;SDS011;10713;51.912;4.494;2023-04-15T00:54:05;11.18;;;5.88;;
21110;SDS011;10713;51.912;4.494;2023-04-15T00:56:35;12.68;;;6.07;;
21110;SDS011;10713;51.912;4.494;2023-04-15T00:59:02;9.38;;;6.05;;
21110;SDS011;10713;51.912;4.494;2023-04-15T01:01:28;12.80;;;5.60;;
21110;SDS011;10713;51.912;4.494;2023-04-15T01:03:54;11.98;;;5.63;;
21110;SDS011;10713;51.912;4.494;2023-04-15T01:06:22;12.40;;;5.90;;
21110;SDS011;10713;51.912;4.494;2023-04-15T01:08:47;13.35;;;5.85;;
21110;SDS011;10713;51.912;4.494;2023-04-15T01:11:13;13.13;;;6.07;;
21110;SDS011;10713;51.912;4.494;2023-04-15T01:13:39;15.88;;;6.63;;
21110;SDS011;10713;51.912;4.494;2023-04-15T01:16:05;12.20;;;5.90;;
21110;SDS011;10713;51.912;4.494;2023-04-15T01:18:32;17.42;;;6.15;;
21110;SDS011;10713;51.912;4.494;2023-04-15T01:20:59;12.38;;;6.10;;
21110;SDS011;10713;51.912;4.494;2023-04-15T01:23:26;14.13;;;6.30;;
21110;SDS011;10713;51.912;4.494;2023-04-15T01:25:52;12.65;;;6.28;;
21110;SDS011;10713;51.912;4.494;2023-04-15T01:28:18;8.70;;;5.82;;
21110;SDS011;10713;51.912;4.494;2023-04-15T01:30:44;12.07;;;6.05;;
21110;SDS011;10713;51.912;4.494;2023-04-15T01:33:09;11.00;;;5.40;;
21110;SDS011;10713;51.912;4.494;2023-04-15T01:35:35;14.25;;;5.70;;
21110;SDS011;10713;51.912;4.494;2023-04-15T01:38:04;7.72;;;5.72;;
21110;SDS011;10713;51.912;4.494;2023-04-15T01:40:32;10.07;;;4.80;;
21110;SDS011;10713;51.912;4.494;2023-04-15T01:42:59;13.75;;;6.57;;
21110;SDS011;10713;51.912;4.494;2023-04-15T01:45:25;13.95;;;6.22;;
21110;SDS011;10713;51.912;4.494;2023-04-15T01:47:50;15.90;;;6.47;;
21110;SDS011;10713;51.912;4.494;2023-04-15T01:50:15;12.77;;;6.72;;
21110;SDS011;10713;51.912;4.494;2023-04-15T01:52:41;20.00;;;7.88;;
21110;SDS011;10713;51.912;4.494;2023-04-15T01:55:07;14.07;;;7.10;;
21110;SDS011;10713;51.912;4.494;2023-04-15T01:57:33;12.65;;;7.15;;
21110;SDS011;10713;51.912;4.494;2023-04-15T01:59:59;14.27;;;7.40;;
21110;SDS011;10713;51.912;4.494;2023-04-15T02:02:24;9.07;;;6.30;;
21110;SDS011;10713;51.912;4.494;2023-04-15T02:04:50;17.60;;;7.15;;
21110;SDS011;10713;51.912;4.494;2023-04-15T02:07:15;11.93;;;7.30;;
21110;SDS011;10713;51.912;4.494;2023-04-15T02:09:41;15.00;;;7.35;;
21110;SDS011;10713;51.912;4.494;2023-04-15T02:12:07;13.07;;;7.10;;
21110;SDS011;10713;51.912;4.494;2023-04-15T02:14:33;15.38;;;7.30;;
21110;SDS011;10713;51.912;4.494;2023-04-15T02:16:58;14.48;;;7.50;;
21110;SDS011;10713;51.912;4.494;2023-04-15T02:19:31;14.30;;;7.85;;
21110;SDS011;10713;51.912;4.494;2023-04-15T02:21:56;15.18;;;7.00;;
21110;SDS011;10713;51.912;4.494;2023-04-15T02:24:22;12.15;;;7.47;;
21110;SDS011;10713;51.912;4.494;2023-04-15T02:26:47;16.13;;;7.68;;
21110;SDS011;10713;51.912;4.494;2023-04-15T02:29:12;12.63;;;7.18;;
21110;SDS011;10713;51.912;4.494;2023-04-15T02:31:38;10.57;;;6.45;;
21110;SDS011;10713;51.912;4.494;2023-04-15T02:34:04;13.25;;;7.03;;
21110;SDS011;10713;51.912;4.494;2023-04-15T02:36:30;13.57;;;7.38;;
21110;SDS011;10713;51.912;4.494;2023-04-15T02:38:55;14.63;;;8.05;;
21110;SDS011;10713;51.912;4.494;2023-04-15T02:41:21;14.45;;;7.82;;
21110;SDS011;10713;51.912;4.494;2023-04-15T02:43:51;13.98;;;7.90;;
21110;SDS011;10713;51.912;4.494;2023-04-15T02:46:16;16.83;;;7.60;;
21110;SDS011;10713;51.912;4.494;2023-04-15T02:48:41;16.25;;;7.57;;
21110;SDS011;10713;51.912;4.494;2023-04-15T02:51:11;16.15;;;7.35;;
21110;SDS011;10713;51.912;4.494;2023-04-15T02:53:37;12.05;;;7.32;;
21110;SDS011;10713;51.912;4.494;2023-04-15T02:56:03;13.43;;;7.85;;
21110;SDS011;10713;51.912;4.494;2023-04-15T02:58:29;14.38;;;8.05;;
21110;SDS011;10713;51.912;4.494;2023-04-15T03:00:54;13.95;;;7.28;;
21110;SDS011;10713;51.912;4.494;2023-04-15T03:03:20;15.25;;;7.85;;
21110;SDS011;10713;51.912;4.494;2023-04-15T03:05:45;15.48;;;8.38;;
21110;SDS011;10713;51.912;4.494;2023-04-15T03:08:11;15.65;;;7.78;;
21110;SDS011;10713;51.912;4.494;2023-04-15T03:10:36;11.80;;;7.80;;
21110;SDS011;10713;51.912;4.494;2023-04-15T03:13:01;12.27;;;7.65;;
21110;SDS011;10713;51.912;4.494;2023-04-15T03:15:27;15.10;;;8.10;;
21110;SDS011;10713;51.912;4.494;2023-04-15T03:17:52;12.13;;;7.13;;
21110;SDS011;10713;51.912;4.494;2023-04-15T03:20:18;12.02;;;7.03;;
21110;SDS011;10713;51.912;4.494;2023-04-15T03:22:43;14.13;;;7.22;;
21110;SDS011;10713;51.912;4.494;2023-04-15T03:25:08;16.80;;;8.15;;
21110;SDS011;10713;51.912;4.494;2023-04-15T03:27:34;13.00;;;7.35;;
21110;SDS011;10713;51.912;4.494;2023-04-15T03:29:59;12.32;;;7.15;;
21110;SDS011;10713;51.912;4.494;2023-04-15T03:32:25;12.52;;;7.15;;
21110;SDS011;10713;51.912;4.494;2023-04-15T03:34:51;16.90;;;8.23;;
21110;SDS011;10713;51.912;4.494;2023-04-15T03:37:16;14.00;;;7.43;;
21110;SDS011;10713;51.912;4.494;2023-04-15T03:39:41;16.55;;;8.68;;
21110;SDS011;10713;51.912;4.494;2023-04-15T03:42:07;17.13;;;8.77;;
21110;SDS011;10713;51.912;4.494;2023-04-15T03:44:32;16.10;;;9.02;;
21110;SDS011;10713;51.912;4.494;2023-04-15T03:46:57;11.07;;;6.47;;
21110;SDS011;10713;51.912;4.494;2023-04-15T03:49:23;17.27;;;8.30;;
21110;SDS011;10713;51.912;4.494;2023-04-15T03:51:48;8.07;;;5.65;;
21110;SDS011;10713;51.912;4.494;2023-04-15T03:54:14;16.20;;;7.72;;
21110;SDS011;10713;51.912;4.494;2023-04-15T03:56:39;15.48;;;7.82;;
21110;SDS011;10713;51.912;4.494;2023-04-15T03:59:05;15.15;;;8.32;;
21110;SDS011;10713;51.912;4.494;2023-04-15T04:01:31;17.30;;;8.27;;
21110;SDS011;10713;51.912;4.494;2023-04-15T04:03:56;11.02;;;6.25;;
21110;SDS011;10713;51.912;4.494;2023-04-15T04:06:21;17.10;;;8.93;;
21110;SDS011;10713;51.912;4.494;2023-04-15T04:08:47;14.85;;;7.65;;
21110;SDS011;10713;51.912;4.494;2023-04-15T04:11:12;10.85;;;6.40;;
21110;SDS011;10713;51.912;4.494;2023-04-15T04:13:38;11.70;;;6.90;;
21110;SDS011;10713;51.912;4.494;2023-04-15T04:16:03;11.25;;;5.90;;
21110;SDS011;10713;51.912;4.494;2023-04-15T04:18:29;10.50;;;5.80;;
21110;SDS011;10713;51.912;4.494;2023-04-15T04:20:56;12.52;;;7.40;;
21110;SDS011;10713;51.912;4.494;2023-04-15T04:23:21;15.13;;;8.55;;
21110;SDS011;10713;51.912;4.494;2023-04-15T04:25:46;11.93;;;6.57;;
21110;SDS011;10713;51.912;4.494;2023-04-15T04:28:12;13.23;;;6.80;;
21110;SDS011;10713;51.912;4.494;2023-04-15T04:30:37;12.60;;;7.78;;
21110;SDS011;10713;51.912;4.494;2023-04-15T04:33:03;10.60;;;7.40;;
21110;SDS011;10713;51.912;4.494;2023-04-15T04:35:28;15.25;;;8.10;;
21110;SDS011;10713;51.912;4.494;2023-04-15T04:37:53;14.40;;;7.28;;
21110;SDS011;10713;51.912;4.494;2023-04-15T04:40:19;16.45;;;8.27;;
21110;SDS011;10713;51.912;4.494;2023-04-15T04:42:44;15.90;;;8.07;;
21110;SDS011;10713;51.912;4.494;2023-04-15T04:45:10;13.85;;;7.85;;
21110;SDS011;10713;51.912;4.494;2023-04-15T04:47:35;15.13;;;8.25;;
21110;SDS011;10713;51.912;4.494;2023-04-15T04:50:00;12.68;;;7.65;;
21110;SDS011;10713;51.912;4.494;2023-04-15T04:52:26;12.38;;;7.22;;
21110;SDS011;10713;51.912;4.494;2023-04-15T04:54:51;13.82;;;7.72;;
21110;SDS011;10713;51.912;4.494;2023-04-15T04:57:17;17.85;;;8.50;;
21110;SDS011;10713;51.912;4.494;2023-04-15T04:59:42;14.00;;;7.70;;
21110;SDS011;10713;51.912;4.494;2023-04-15T05:02:07;12.65;;;8.35;;
21110;SDS011;10713;51.912;4.494;2023-04-15T05:04:33;17.02;;;7.32;;
21110;SDS011;10713;51.912;4.494;2023-04-15T05:06:58;15.40;;;8.48;;
21110;SDS011;10713;51.912;4.494;2023-04-15T05:09:24;17.52;;;8.50;;
21110;SDS011;10713;51.912;4.494;2023-04-15T05:11:49;19.05;;;8.93;;
21110;SDS011;10713;51.912;4.494;2023-04-15T05:14:14;16.65;;;8.40;;
21110;SDS011;10713;51.912;4.494;2023-04-15T05:16:40;16.80;;;8.52;;
21110;SDS011;10713;51.912;4.494;2023-04-15T05:19:05;14.23;;;8.20;;
21110;SDS011;10713;51.912;4.494;2023-04-15T05:21:31;15.13;;;8.45;;
21110;SDS011;10713;51.912;4.494;2023-04-15T05:23:57;12.90;;;8.10;;
21110;SDS011;10713;51.912;4.494;2023-04-15T05:26:22;10.65;;;7.30;;
21110;SDS011;10713;51.912;4.494;2023-04-15T05:28:48;10.65;;;6.43;;
21110;SDS011;10713;51.912;4.494;2023-04-15T05:31:14;12.57;;;7.78;;
21110;SDS011;10713;51.912;4.494;2023-04-15T05:33:40;12.05;;;7.35;;
21110;SDS011;10713;51.912;4.494;2023-04-15T05:36:05;11.20;;;5.93;;
21110;SDS011;10713;51.912;4.494;2023-04-15T05:38:31;12.43;;;7.13;;
21110;SDS011;10713;51.912;4.494;2023-04-15T05:40:56;12.07;;;6.95;;
21110;SDS011;10713;51.912;4.494;2023-04-15T05:43:22;13.85;;;7.07;;
21110;SDS011;10713;51.912;4.494;2023-04-15T05:45:47;9.13;;;4.80;;
21110;SDS011;10713;51.912;4.494;2023-04-15T05:48:12;9.15;;;4.93;;
21110;SDS011;10713;51.912;4.494;2023-04-15T05:50:39;9.68;;;5.65;;
21110;SDS011;10713;51.912;4.494;2023-04-15T05:53:06;8.98;;;4.70;;
21110;SDS011;10713;51.912;4.494;2023-04-15T05:55:32;8.30;;;5.07;;
21110;SDS011;10713;51.912;4.494;2023-04-15T05:57:57;12.20;;;7.28;;
21110;SDS011;10713;51.912;4.494;2023-04-15T06:00:22;11.20;;;6.95;;
21110;SDS011;10713;51.912;4.494;2023-04-15T06:02:48;8.25;;;5.20;;
21110;SDS011;10713;51.912;4.494;2023-04-15T06:05:14;7.80;;;4.82;;
21110;SDS011;10713;51.912;4.494;2023-04-15T06:07:39;11.02;;;7.05;;
21110;SDS011;10713;51.912;4.494;2023-04-15T06:10:05;11.85;;;5.60;;
21110;SDS011;10713;51.912;4.494;2023-04-15T06:12:31;12.10;;;6.63;;
21110;SDS011;10713;51.912;4.494;2023-04-15T06:14:57;10.90;;;7.18;;
21110;SDS011;10713;51.912;4.494;2023-04-15T06:17:22;10.48;;;6.45;;
21110;SDS011;10713;51.912;4.494;2023-04-15T06:19:47;10.35;;;6.72;;
21110;SDS011;10713;51.912;4.494;2023-04-15T06:22:14;10.70;;;7.28;;
21110;SDS011;10713;51.912;4.494;2023-04-15T06:24:40;10.25;;;6.18;;
21110;SDS011;10713;51.912;4.494;2023-04-15T06:27:05;8.95;;;6.50;;
21110;SDS011;10713;51.912;4.494;2023-04-15T06:29:31;11.68;;;6.93;;
21110;SDS011;10713;51.912;4.494;2023-04-15T06:31:56;10.70;;;7.30;;
21110;SDS011;10713;51.912;4.494;2023-04-15T06:34:21;10.80;;;6.97;;
21110;SDS011;10713;51.912;4.494;2023-04-15T06:36:47;10.32;;;6.38;;
21110;SDS011;10713;51.912;4.494;2023-04-15T06:39:12;12.43;;;7.15;;
21110;SDS011;10713;51.912;4.494;2023-04-15T06:41:37;10.13;;;6.95;;
21110;SDS011;10713;51.912;4.494;2023-04-15T06:44:03;11.05;;;6.95;;
21110;SDS011;10713;51.912;4.494;2023-04-15T06:46:28;8.75;;;6.65;;
21110;SDS011;10713;51.912;4.494;2023-04-15T06:48:54;16.05;;;7.53;;
21110;SDS011;10713;51.912;4.494;2023-04-15T06:51:19;11.23;;;6.93;;
21110;SDS011;10713;51.912;4.494;2023-04-15T06:53:45;9.32;;;6.65;;
21110;SDS011;10713;51.912;4.494;2023-04-15T06:56:10;11.98;;;7.97;;
21110;SDS011;10713;51.912;4.494;2023-04-15T06:58:35;12.45;;;7.50;;
21110;SDS011;10713;51.912;4.494;2023-04-15T07:01:01;10.73;;;7.32;;
21110;SDS011;10713;51.912;4.494;2023-04-15T07:03:27;10.63;;;7.10;;
21110;SDS011;10713;51.912;4.494;2023-04-15T07:05:53;10.32;;;6.55;;
21110;SDS011;10713;51.912;4.494;2023-04-15T07:08:18;11.32;;;6.75;;
21110;SDS011;10713;51.912;4.494;2023-04-15T07:10:45;9.82;;;6.40;;
21110;SDS011;10713;51.912;4.494;2023-04-15T07:13:11;8.63;;;6.57;;
21110;SDS011;10713;51.912;4.494;2023-04-15T07:15:36;9.85;;;6.72;;
21110;SDS011;10713;51.912;4.494;2023-04-15T07:18:02;8.65;;;6.20;;
21110;SDS011;10713;51.912;4.494;2023-04-15T07:20:27;7.68;;;5.55;;
21110;SDS011;10713;51.912;4.494;2023-04-15T07:22:52;12.68;;;7.15;;
21110;SDS011;10713;51.912;4.494;2023-04-15T07:25:18;11.23;;;6.53;;
21110;SDS011;10713;51.912;4.494;2023-04-15T07:27:44;9.30;;;6.60;;
21110;SDS011;10713;51.912;4.494;2023-04-15T07:30:09;9.88;;;6.25;;
21110;SDS011;10713;51.912;4.494;2023-04-15T07:32:36;9.82;;;5.70;;
21110;SDS011;10713;51.912;4.494;2023-04-15T07:35:01;10.02;;;6.65;;
21110;SDS011;10713;51.912;4.494;2023-04-15T07:37:27;8.48;;;6.47;;
21110;SDS011;10713;51.912;4.494;2023-04-15T07:39:53;12.48;;;6.63;;
21110;SDS011;10713;51.912;4.494;2023-04-15T07:42:19;18.33;;;7.57;;
21110;SDS011;10713;51.912;4.494;2023-04-15T07:44:44;10.90;;;5.95;;
21110;SDS011;10713;51.912;4.494;2023-04-15T07:47:11;12.07;;;6.43;;
21110;SDS011;10713;51.912;4.494;2023-04-15T07:49:36;7.72;;;6.15;;
21110;SDS011;10713;51.912;4.494;2023-04-15T07:52:02;9.13;;;6.25;;
21110;SDS011;10713;51.912;4.494;2023-04-15T07:54:27;9.93;;;6.60;;
21110;SDS011;10713;51.912;4.494;2023-04-15T07:56:53;10.40;;;6.88;;
21110;SDS011;10713;51.912;4.494;2023-04-15T07:59:18;7.15;;;5.55;;
21110;SDS011;10713;51.912;4.494;2023-04-15T08:01:44;10.23;;;6.68;;
21110;SDS011;10713;51.912;4.494;2023-04-15T08:04:09;11.52;;;6.10;;
21110;SDS011;10713;51.912;4.494;2023-04-15T08:06:34;11.10;;;6.75;;
21110;SDS011;10713;51.912;4.494;2023-04-15T08:09:00;9.75;;;6.28;;
21110;SDS011;10713;51.912;4.494;2023-04-15T08:11:26;10.13;;;6.47;;
21110;SDS011;10713;51.912;4.494;2023-04-15T08:13:51;10.13;;;6.65;;
21110;SDS011;10713;51.912;4.494;2023-04-15T08:18:50;11.65;;;6.60;;
21110;SDS011;10713;51.912;4.494;2023-04-15T08:21:17;10.65;;;5.50;;
21110;SDS011;10713;51.912;4.494;2023-04-15T08:23:43;10.50;;;6.18;;
21110;SDS011;10713;51.912;4.494;2023-04-15T08:26:09;9.15;;;6.50;;
21110;SDS011;10713;51.912;4.494;2023-04-15T08:28:36;7.20;;;5.93;;
21110;SDS011;10713;51.912;4.494;2023-04-15T08:31:03;8.38;;;5.80;;
21110;SDS011;10713;51.912;4.494;2023-04-15T08:33:29;11.02;;;6.57;;
21110;SDS011;10713;51.912;4.494;2023-04-15T08:35:54;11.23;;;6.50;;
21110;SDS011;10713;51.912;4.494;2023-04-15T08:38:20;9.38;;;6.78;;
21110;SDS011;10713;51.912;4.494;2023-04-15T08:40:45;7.68;;;6.00;;
21110;SDS011;10713;51.912;4.494;2023-04-15T08:43:20;14.98;;;6.40;;
21110;SDS011;10713;51.912;4.494;2023-04-15T08:45:52;8.32;;;6.70;;
21110;SDS011;10713;51.912;4.494;2023-04-15T08:48:18;12.02;;;6.82;;
21110;SDS011;10713;51.912;4.494;2023-04-15T08:50:45;9.45;;;6.25;;
21110;SDS011;10713;51.912;4.494;2023-04-15T08:53:11;11.25;;;7.03;;
21110;SDS011;10713;51.912;4.494;2023-04-15T08:55:43;11.73;;;7.22;;
21110;SDS011;10713;51.912;4.494;2023-04-15T08:58:10;10.05;;;7.38;;
21110;SDS011;10713;51.912;4.494;2023-04-15T09:00:36;11.13;;;7.20;;
21110;SDS011;10713;51.912;4.494;2023-04-15T09:03:05;9.65;;;7.20;;
21110;SDS011;10713;51.912;4.494;2023-04-15T09:05:32;9.65;;;5.65;;
21110;SDS011;10713;51.912;4.494;2023-04-15T09:07:58;9.05;;;6.35;;
21110;SDS011;10713;51.912;4.494;2023-04-15T09:10:24;11.05;;;7.32;;
21110;SDS011;10713;51.912;4.494;2023-04-15T09:12:50;8.35;;;6.03;;
21110;SDS011;10713;51.912;4.494;2023-04-15T09:15:15;6.97;;;4.78;;
21110;SDS011;10713;51.912;4.494;2023-04-15T09:17:42;10.93;;;6.55;;
21110;SDS011;10713;51.912;4.494;2023-04-15T09:20:08;9.57;;;5.90;;
21110;SDS011;10713;51.912;4.494;2023-04-15T09:22:35;7.75;;;5.50;;
21110;SDS011;10713;51.912;4.494;2023-04-15T09:25:01;10.63;;;6.03;;
21110;SDS011;10713;51.912;4.494;2023-04-15T09:27:27;9.88;;;6.80;;
21110;SDS011;10713;51.912;4.494;2023-04-15T09:29:53;10.77;;;6.70;;
21110;SDS011;10713;51.912;4.494;2023-04-15T09:32:18;9.10;;;6.18;;
21110;SDS011;10713;51.912;4.494;2023-04-15T09:34:45;8.35;;;4.93;;
21110;SDS011;10713;51.912;4.494;2023-04-15T09:37:10;11.13;;;5.55;;
21110;SDS011;10713;51.912;4.494;2023-04-15T09:39:48;8.63;;;5.45;;
21110;SDS011;10713;51.912;4.494;2023-04-15T09:42:14;9.23;;;5.28;;
21110;SDS011;10713;51.912;4.494;2023-04-15T09:44:41;9.77;;;5.20;;
21110;SDS011;10713;51.912;4.494;2023-04-15T09:47:07;7.32;;;5.07;;
21110;SDS011;10713;51.912;4.494;2023-04-15T09:49:32;5.97;;;4.57;;
21110;SDS011;10713;51.912;4.494;2023-04-15T09:52:01;9.40;;;5.10;;
21110;SDS011;10713;51.912;4.494;2023-04-15T09:54:37;9.13;;;5.43;;
21110;SDS011;10713;51.912;4.494;2023-04-15T09:57:06;10.93;;;6.15;;
21110;SDS011;10713;51.912;4.494;2023-04-15T09:59:32;6.63;;;4.00;;
21110;SDS011;10713;51.912;4.494;2023-04-15T10:01:58;7.60;;;4.65;;
21110;SDS011;10713;51.912;4.494;2023-04-15T10:04:24;5.40;;;2.85;;
21110;SDS011;10713;51.912;4.494;2023-04-15T10:06:51;7.13;;;4.00;;
21110;SDS011;10713;51.912;4.494;2023-04-15T10:09:17;5.15;;;3.42;;
21110;SDS011;10713;51.912;4.494;2023-04-15T10:11:43;7.00;;;3.60;;
21110;SDS011;10713;51.912;4.494;2023-04-15T10:14:10;5.95;;;4.07;;
21110;SDS011;10713;51.912;4.494;2023-04-15T10:16:38;7.15;;;3.72;;
21110;SDS011;10713;51.912;4.494;2023-04-15T10:19:07;7.32;;;4.18;;
21110;SDS011;10713;51.912;4.494;2023-04-15T10:21:33;6.68;;;3.47;;
21110;SDS011;10713;51.912;4.494;2023-04-15T10:24:01;5.55;;;2.78;;
21110;SDS011;10713;51.912;4.494;2023-04-15T10:26:27;4.00;;;2.55;;
21110;SDS011;10713;51.912;4.494;2023-04-15T10:28:53;6.40;;;2.53;;
21110;SDS011;10713;51.912;4.494;2023-04-15T10:31:19;4.80;;;2.67;;
21110;SDS011;10713;51.912;4.494;2023-04-15T10:33:44;4.28;;;2.13;;
21110;SDS011;10713;51.912;4.494;2023-04-15T10:36:11;5.97;;;3.20;;
21110;SDS011;10713;51.912;4.494;2023-04-15T10:43:37;4.05;;;2.40;;
21110;SDS011;10713;51.912;4.494;2023-04-15T10:46:04;4.30;;;1.73;;
21110;SDS011;10713;51.912;4.494;2023-04-15T10:48:30;4.25;;;2.53;;
21110;SDS011;10713;51.912;4.494;2023-04-15T10:50:56;9.70;;;3.33;;
21110;SDS011;10713;51.912;4.494;2023-04-15T10:53:27;7.05;;;3.00;;
21110;SDS011;10713;51.912;4.494;2023-04-15T10:55:55;4.15;;;2.80;;
21110;SDS011;10713;51.912;4.494;2023-04-15T10:58:24;7.90;;;2.58;;
21110;SDS011;10713;51.912;4.494;2023-04-15T11:00:51;7.22;;;2.53;;
21110;SDS011;10713;51.912;4.494;2023-04-15T11:03:33;4.25;;;2.42;;
21110;SDS011;10713;51.912;4.494;2023-04-15T11:06:02;5.75;;;2.80;;
21110;SDS011;10713;51.912;4.494;2023-04-15T11:11:37;4.45;;;2.53;;
21110;SDS011;10713;51.912;4.494;2023-04-15T11:14:27;8.05;;;2.60;;
21110;SDS011;10713;51.912;4.494;2023-04-15T11:16:52;4.43;;;3.10;;
21110;SDS011;10713;51.912;4.494;2023-04-15T11:19:17;5.70;;;2.45;;
21110;SDS011;10713;51.912;4.494;2023-04-15T11:21:43;5.72;;;3.17;;
21110;SDS011;10713;51.912;4.494;2023-04-15T11:24:08;3.88;;;2.40;;
21110;SDS011;10713;51.912;4.494;2023-04-15T11:26:33;9.80;;;3.25;;
21110;SDS011;10713;51.912;4.494;2023-04-15T11:28:59;5.70;;;3.13;;
21110;SDS011;10713;51.912;4.494;2023-04-15T11:31:25;6.30;;;2.88;;
21110;SDS011;10713;51.912;4.494;2023-04-15T11:33:53;4.38;;;2.30;;
21110;SDS011;10713;51.912;4.494;2023-04-15T11:36:22;4.18;;;2.70;;
21110;SDS011;10713;51.912;4.494;2023-04-15T11:38:51;5.55;;;2.70;;
21110;SDS011;10713;51.912;4.494;2023-04-15T11:41:19;5.00;;;2.88;;
21110;SDS011;10713;51.912;4.494;2023-04-15T11:43:45;4.72;;;2.70;;
21110;SDS011;10713;51.912;4.494;2023-04-15T11:46:11;7.88;;;3.20;;
21110;SDS011;10713;51.912;4.494;2023-04-15T11:48:40;5.68;;;2.42;;
21110;SDS011;10713;51.912;4.494;2023-04-15T11:51:07;5.97;;;3.33;;
21110;SDS011;10713;51.912;4.494;2023-04-15T11:58:45;7.32;;;3.03;;
21110;SDS011;10713;51.912;4.494;2023-04-15T12:01:11;5.68;;;3.00;;
21110;SDS011;10713;51.912;4.494;2023-04-15T12:03:37;5.45;;;3.33;;
21110;SDS011;10713;51.912;4.494;2023-04-15T12:14:04;4.57;;;3.15;;
21110;SDS011;10713;51.912;4.494;2023-04-15T12:16:34;5.40;;;2.58;;
21110;SDS011;10713;51.912;4.494;2023-04-15T12:19:06;8.82;;;3.03;;
21110;SDS011;10713;51.912;4.494;2023-04-15T12:21:34;5.47;;;2.80;;
21110;SDS011;10713;51.912;4.494;2023-04-15T12:24:01;3.72;;;2.47;;
21110;SDS011;10713;51.912;4.494;2023-04-15T12:29:07;5.15;;;2.30;;
21110;SDS011;10713;51.912;4.494;2023-04-15T12:31:33;6.13;;;3.30;;
21110;SDS011;10713;51.912;4.494;2023-04-15T12:34:00;6.40;;;3.55;;
21110;SDS011;10713;51.912;4.494;2023-04-15T12:36:26;6.90;;;3.40;;
21110;SDS011;10713;51.912;4.494;2023-04-15T12:38:52;5.82;;;2.67;;
21110;SDS011;10713;51.912;4.494;2023-04-15T12:41:19;7.53;;;3.40;;
21110;SDS011;10713;51.912;4.494;2023-04-15T12:43:45;6.10;;;3.65;;
21110;SDS011;10713;51.912;4.494;2023-04-15T12:46:11;7.63;;;2.88;;
21110;SDS011;10713;51.912;4.494;2023-04-15T12:48:37;4.90;;;3.08;;
21110;SDS011;10713;51.912;4.494;2023-04-15T12:51:03;5.53;;;3.00;;
21110;SDS011;10713;51.912;4.494;2023-04-15T12:53:28;7.90;;;3.30;;
21110;SDS011;10713;51.912;4.494;2023-04-15T12:55:53;6.22;;;3.25;;
21110;SDS011;10713;51.912;4.494;2023-04-15T12:58:19;8.57;;;2.83;;
21110;SDS011;10713;51.912;4.494;2023-04-15T13:00:45;3.95;;;2.90;;
21110;SDS011;10713;51.912;4.494;2023-04-15T13:03:11;3.60;;;2.42;;
21110;SDS011;10713;51.912;4.494;2023-04-15T13:05:37;4.63;;;2.33;;
21110;SDS011;10713;51.912;4.494;2023-04-15T13:08:03;6.45;;;2.42;;
21110;SDS011;10713;51.912;4.494;2023-04-15T13:10:29;6.93;;;2.45;;
21110;SDS011;10713;51.912;4.494;2023-04-15T13:12:55;5.30;;;2.22;;
21110;SDS011;10713;51.912;4.494;2023-04-15T13:15:21;5.63;;;3.03;;
21110;SDS011;10713;51.912;4.494;2023-04-15T13:17:47;3.80;;;2.05;;
21110;SDS011;10713;51.912;4.494;2023-04-15T13:20:13;7.65;;;3.17;;
21110;SDS011;10713;51.912;4.494;2023-04-15T13:22:39;4.25;;;2.25;;
21110;SDS011;10713;51.912;4.494;2023-04-15T13:25:05;4.35;;;2.10;;
21110;SDS011;10713;51.912;4.494;2023-04-15T13:27:32;6.72;;;3.33;;
21110;SDS011;10713;51.912;4.494;2023-04-15T13:29:57;9.32;;;2.60;;
21110;SDS011;10713;51.912;4.494;2023-04-15T13:32:23;15.93;;;3.20;;
21110;SDS011;10713;51.912;4.494;2023-04-15T13:34:49;4.45;;;2.42;;
21110;SDS011;10713;51.912;4.494;2023-04-15T13:37:14;7.10;;;2.03;;
21110;SDS011;10713;51.912;4.494;2023-04-15T13:39:40;4.90;;;2.05;;
21110;SDS011;10713;51.912;4.494;2023-04-15T13:42:05;4.38;;;2.20;;
21110;SDS011;10713;51.912;4.494;2023-04-15T13:44:31;3.95;;;1.98;;
21110;SDS011;10713;51.912;4.494;2023-04-15T13:46:56;4.82;;;2.53;;
21110;SDS011;10713;51.912;4.494;2023-04-15T13:49:21;3.42;;;2.15;;
21110;SDS011;10713;51.912;4.494;2023-04-15T13:51:47;5.45;;;2.38;;
21110;SDS011;10713;51.912;4.494;2023-04-15T13:54:12;4.75;;;2.08;;
21110;SDS011;10713;51.912;4.494;2023-04-15T13:56:38;9.68;;;2.92;;
21110;SDS011;10713;51.912;4.494;2023-04-15T13:59:03;8.88;;;3.10;;
21110;SDS011;10713;51.912;4.494;2023-04-15T14:01:30;9.85;;;3.10;;
21110;SDS011;10713;51.912;4.494;2023-04-15T14:03:55;7.65;;;2.60;;
21110;SDS011;10713;51.912;4.494;2023-04-15T14:06:21;4.25;;;2.20;;
21110;SDS011;10713;51.912;4.494;2023-04-15T14:08:46;4.05;;;2.13;;
21110;SDS011;10713;51.912;4.494;2023-04-15T14:11:12;7.97;;;2.20;;
21110;SDS011;10713;51.912;4.494;2023-04-15T14:13:37;7.65;;;2.20;;
21110;SDS011;10713;51.912;4.494;2023-04-15T14:16:03;8.02;;;2.35;;
21110;SDS011;10713;51.912;4.494;2023-04-15T14:18:28;6.93;;;2.50;;
21110;SDS011;10713;51.912;4.494;2023-04-15T14:20:54;4.88;;;2.53;;
21110;SDS011;10713;51.912;4.494;2023-04-15T14:23:20;5.43;;;1.90;;
21110;SDS011;10713;51.912;4.494;2023-04-15T14:25:45;5.05;;;2.72;;
21110;SDS011;10713;51.912;4.494;2023-04-15T14:28:11;5.35;;;2.58;;
21110;SDS011;10713;51.912;4.494;2023-04-15T14:30:36;6.68;;;2.22;;
21110;SDS011;10713;51.912;4.494;2023-04-15T14:33:02;7.85;;;2.20;;
21110;SDS011;10713;51.912;4.494;2023-04-15T14:35:27;4.53;;;2.30;;
21110;SDS011;10713;51.912;4.494;2023-04-15T14:37:53;6.32;;;2.60;;
21110;SDS011;10713;51.912;4.494;2023-04-15T14:40:19;6.45;;;2.60;;
21110;SDS011;10713;51.912;4.494;2023-04-15T14:42:45;6.00;;;2.65;;
21110;SDS011;10713;51.912;4.494;2023-04-15T14:45:10;6.90;;;2.47;;
21110;SDS011;10713;51.912;4.494;2023-04-15T14:47:36;7.03;;;2.75;;
21110;SDS011;10713;51.912;4.494;2023-04-15T14:50:01;5.60;;;2.75;;
21110;SDS011;10713;51.912;4.494;2023-04-15T14:52:27;7.10;;;2.72;;
21110;SDS011;10713;51.912;4.494;2023-04-15T14:54:53;9.43;;;3.30;;
21110;SDS011;10713;51.912;4.494;2023-04-15T14:57:18;10.35;;;2.75;;
21110;SDS011;10713;51.912;4.494;2023-04-15T14:59:43;5.43;;;2.22;;